Terminal Aerodrome Forecast
Issued by NWS Chicago, IL

Home | Current Version | Previous Version | Text Only | Print | Product List | Glossary On
Versions: 1 2 3 4 5 6 7 8 9 10 11 12 13 14 15 16 17 18 19 20 21 22 23 24 25
161
FTUS43 KLOT 201455 AAA
TAFRFD
TAF AMD
KRFD 201455Z 2015/2112 18010KT P6SM FEW150 SCT250
     FM201800 18014G21KT P6SM SCT250
     FM210100 20004KT P6SM -SHRA BKN050 OVC200
      TEMPO 2102/2105 4SM -TSRA BKN050CB
     FM210700 23003KT P6SM VCSH BKN050=

USA.gov is the U.S. government's official web portal to all federal, state and local government web resources and services.